Time;durP1;ratioP1;P1;durP2;ratioP2;P2;SDS_P1;SDS_P2;PMS_P1;PMS_P2;Temp;Humidity;BMP_temperature;BMP_pressure;BME280_temperature;BME280_humidity;BME280_pressure;Samples;Min_cycle;Max_cycle;Signal;HPM_P1;HPM_P2
2020/12/20 00:01:05;;;;;;;34.97;21.77;;;;;;;5.58;92.40;95936.41;5034464;28;20771;-81
2020/12/20 00:03:31;;;;;;;32.33;19.60;;;;;;;5.58;92.66;95936.41;5034342;28;20454;-81
2020/12/20 00:05:58;;;;;;;38.57;23.10;;;;;;;5.57;92.21;95936.50;5034272;28;20438;-81
2020/12/20 00:08:25;;;;;;;44.73;25.17;;;;;;;5.47;92.07;95930.84;5034089;28;20461;-82
2020/12/20 00:10:52;;;;;;;37.40;23.17;;;;;;;5.51;92.87;95939.41;5033918;28;20439;-81
2020/12/20 00:13:18;;;;;;;36.30;23.00;;;;;;;5.47;92.59;95943.03;5034780;28;20445;-81
2020/12/20 00:15:45;;;;;;;45.33;22.93;;;;;;;5.32;93.11;95938.56;5034078;28;20474;-81
2020/12/20 00:18:11;;;;;;;42.60;23.87;;;;;;;5.05;93.54;95940.72;5033903;28;20450;-81
2020/12/20 00:20:37;;;;;;;41.67;24.23;;;;;;;5.00;94.11;95937.47;4999122;28;20450;-81
2020/12/20 00:23:04;;;;;;;39.50;21.33;;;;;;;4.96;95.50;95937.63;5033879;28;20481;-81
2020/12/20 00:25:30;;;;;;;38.10;22.73;;;;;;;4.93;95.28;95935.16;5033725;28;20435;-81
2020/12/20 00:27:57;;;;;;;41.50;24.27;;;;;;;4.95;95.87;95945.50;5033400;28;20450;-81
2020/12/20 00:30:24;;;;;;;41.43;22.03;;;;;;;4.72;96.13;95943.94;5033628;28;20438;-81
2020/12/20 00:32:51;;;;;;;42.03;23.20;;;;;;;4.79;96.80;95942.75;5034147;28;20866;-81
2020/12/20 00:35:18;;;;;;;40.90;20.30;;;;;;;4.79;96.65;95936.69;5033689;28;20505;-81
2020/12/20 00:37:44;;;;;;;37.00;21.40;;;;;;;4.88;96.26;95944.91;5033505;28;20442;-81
2020/12/20 00:40:11;;;;;;;34.43;20.67;;;;;;;4.95;97.23;95946.34;5033393;28;20453;-81
2020/12/20 00:42:37;;;;;;;31.13;19.87;;;;;;;5.04;96.42;95946.81;5033243;28;20442;-81
2020/12/20 00:45:05;;;;;;;38.70;19.90;;;;;;;5.10;95.84;95938.72;5033361;28;20489;-81
2020/12/20 00:47:31;;;;;;;38.60;21.07;;;;;;;5.16;95.83;95941.03;5033519;28;20438;-81
2020/12/20 00:49:57;;;;;;;43.23;21.63;;;;;;;5.23;95.17;95940.69;5033441;28;20445;-81
2020/12/20 00:52:24;;;;;;;33.00;20.07;;;;;;;5.19;94.69;95939.13;5033050;28;20512;-81
2020/12/20 00:54:50;;;;;;;34.60;19.10;;;;;;;5.12;94.29;95945.53;5033499;28;20430;-82
2020/12/20 00:57:16;;;;;;;38.87;19.10;;;;;;;4.76;95.46;95949.84;5032901;28;20825;-81
2020/12/20 00:59:43;;;;;;;39.90;22.87;;;;;;;4.52;97.91;95946.56;5033235;28;20472;-81
2020/12/20 01:02:11;;;;;;;34.93;21.20;;;;;;;4.48;97.22;95939.81;5014610;28;20526;-81
2020/12/20 01:04:37;;;;;;;41.83;23.40;;;;;;;4.15;100.00;95939.53;4998521;28;20437;-81
2020/12/20 01:07:03;;;;;;;35.27;20.33;;;;;;;4.12;100.00;95937.91;5031054;28;20875;-81
2020/12/20 01:09:30;;;;;;;41.47;22.40;;;;;;;4.05;100.00;95941.69;5032890;28;20441;-81
2020/12/20 01:11:57;;;;;;;48.30;23.97;;;;;;;4.15;100.00;95930.00;4998192;28;20485;-81
2020/12/20 01:14:24;;;;;;;38.67;22.60;;;;;;;4.29;100.00;95935.41;5032847;28;20965;-81
2020/12/20 01:16:50;;;;;;;40.17;21.40;;;;;;;4.32;100.00;95932.69;5032754;28;20474;-81
2020/12/20 01:19:17;;;;;;;41.20;23.50;;;;;;;4.47;99.73;95927.75;5033020;28;20797;-80
2020/12/20 01:21:44;;;;;;;35.77;21.70;;;;;;;4.55;99.94;95928.22;5032492;28;20446;-81
2020/12/20 01:24:10;;;;;;;43.60;22.30;;;;;;;4.60;99.56;95927.13;4997583;28;20500;-81
2020/12/20 01:26:36;;;;;;;41.10;21.93;;;;;;;4.66;98.99;95920.81;5032691;28;20477;-81
2020/12/20 01:29:03;;;;;;;42.60;21.90;;;;;;;4.73;98.31;95923.97;5032688;28;20459;-81
2020/12/20 01:31:29;;;;;;;39.50;21.73;;;;;;;4.71;98.18;95921.44;5032490;28;20450;-81
2020/12/20 01:33:55;;;;;;;38.50;22.43;;;;;;;4.74;98.28;95917.88;5032998;28;20446;-81
2020/12/20 01:36:23;;;;;;;39.30;20.30;;;;;;;4.83;97.15;95914.84;5032377;28;20490;-81
2020/12/20 01:38:49;;;;;;;46.77;22.40;;;;;;;4.80;96.90;95915.81;5032281;28;20454;-81
2020/12/20 01:41:15;;;;;;;39.33;19.33;;;;;;;4.83;97.37;95915.69;5032281;28;20512;-81
2020/12/20 01:43:43;;;;;;;39.07;22.63;;;;;;;4.84;97.14;95917.38;5032407;28;20442;-81
2020/12/20 01:46:11;;;;;;;36.10;21.67;;;;;;;4.92;96.52;95915.28;5032413;28;20545;-81
2020/12/20 01:48:39;;;;;;;41.23;23.53;;;;;;;4.98;95.87;95914.16;5032651;28;20438;-81
2020/12/20 01:51:06;;;;;;;35.80;21.03;;;;;;;4.97;95.79;95915.91;5032271;28;20592;-83
2020/12/20 01:53:34;;;;;;;43.27;22.50;;;;;;;4.99;96.43;95905.44;5032559;28;20442;-81
2020/12/20 01:56:02;;;;;;;42.03;22.53;;;;;;;5.06;96.37;95911.19;5032251;28;20482;-81
2020/12/20 01:58:28;;;;;;;39.57;21.77;;;;;;;5.12;95.31;95916.09;5032840;28;20911;-81
2020/12/20 02:00:55;;;;;;;35.10;23.43;;;;;;;5.02;95.56;95913.09;5032216;28;20446;-81
2020/12/20 02:03:22;;;;;;;46.10;23.87;;;;;;;4.98;96.05;95915.00;5032162;28;20446;-81
2020/12/20 02:05:49;;;;;;;46.20;23.20;;;;;;;5.05;95.55;95919.91;5032028;28;20468;-81
2020/12/20 02:08:16;;;;;;;46.07;23.80;;;;;;;5.05;95.62;95910.34;5032153;28;20438;-81
2020/12/20 02:10:43;;;;;;;39.23;20.83;;;;;;;5.09;94.85;95917.06;5032426;28;20440;-81
2020/12/20 02:13:10;;;;;;;34.07;19.67;;;;;;;5.12;95.15;95914.31;5032377;28;20813;-80
2020/12/20 02:15:36;;;;;;;37.53;19.93;;;;;;;5.09;94.92;95919.69;5013511;28;20489;-81
2020/12/20 02:18:03;;;;;;;30.40;16.00;;;;;;;4.82;95.99;95913.16;5031846;28;20591;-82
2020/12/20 02:20:29;;;;;;;35.27;17.87;;;;;;;4.62;96.45;95922.69;5031906;28;20826;-81
2020/12/20 02:22:57;;;;;;;41.83;19.50;;;;;;;4.76;96.25;95911.69;5032110;28;20490;-81
2020/12/20 02:25:24;;;;;;;35.23;19.90;;;;;;;4.57;97.85;95913.41;5032210;28;20450;-81
2020/12/20 02:27:51;;;;;;;31.50;19.50;;;;;;;4.74;97.58;95918.72;5032077;28;20438;-81
2020/12/20 02:30:18;;;;;;;33.33;18.97;;;;;;;4.74;97.27;95916.09;5031966;28;20559;-81
2020/12/20 02:32:44;;;;;;;30.83;16.17;;;;;;;4.68;97.24;95913.78;5031937;28;20930;-81
2020/12/20 02:35:10;;;;;;;34.43;19.63;;;;;;;4.41;98.70;95915.03;5031603;28;20528;-81
2020/12/20 02:37:37;;;;;;;26.87;16.60;;;;;;;4.20;99.73;95909.84;5031896;28;20466;-81
2020/12/20 02:40:05;;;;;;;28.67;17.87;;;;;;;4.37;99.95;95914.31;5032124;28;20452;-82
2020/12/20 02:42:31;;;;;;;30.00;17.40;;;;;;;4.32;100.00;95906.69;5031819;28;21001;-81
2020/12/20 02:44:58;;;;;;;38.30;19.03;;;;;;;4.33;99.98;95910.16;5031524;28;20460;-82
2020/12/20 02:47:24;;;;;;;37.47;19.60;;;;;;;4.40;99.73;95908.16;5032005;28;20450;-81
2020/12/20 02:49:51;;;;;;;31.73;18.90;;;;;;;4.50;100.00;95917.22;5032542;28;20529;-81
2020/12/20 02:52:17;;;;;;;31.97;19.63;;;;;;;4.39;99.77;95916.84;5035385;28;20529;-81
2020/12/20 02:54:44;;;;;;;31.23;19.00;;;;;;;4.43;99.89;95918.41;5035629;28;20444;-81
2020/12/20 02:57:11;;;;;;;35.67;19.90;;;;;;;4.53;99.29;95906.66;5035299;28;20564;-81
2020/12/20 02:59:37;;;;;;;34.40;19.30;;;;;;;4.57;99.86;95903.84;5035641;28;20456;-81
2020/12/20 03:02:04;;;;;;;43.73;19.43;;;;;;;4.64;99.43;95909.66;5035271;28;20481;-80
2020/12/20 03:04:30;;;;;;;37.67;21.10;;;;;;;4.69;99.49;95905.09;5035645;28;20438;-81
2020/12/20 03:06:57;;;;;;;36.47;18.37;;;;;;;4.76;99.88;95909.09;5035101;28;20938;-81
2020/12/20 03:09:23;;;;;;;33.27;19.00;;;;;;;4.86;98.78;95910.34;5035307;28;20464;-80
2020/12/20 03:11:49;;;;;;;30.17;19.27;;;;;;;4.92;98.37;95907.47;5035167;28;20469;-81
2020/12/20 03:14:17;;;;;;;31.40;17.10;;;;;;;4.98;97.39;95903.75;5034890;28;20504;-81
2020/12/20 03:16:43;;;;;;;31.30;18.57;;;;;;;5.02;96.88;95902.69;5035059;28;20943;-81
2020/12/20 03:19:10;;;;;;;33.33;18.13;;;;;;;5.05;96.80;95905.13;5034894;28;20448;-81
2020/12/20 03:21:36;;;;;;;34.53;18.00;;;;;;;5.08;96.34;95898.94;5034986;28;20454;-81
2020/12/20 03:24:02;;;;;;;32.73;17.97;;;;;;;5.11;96.00;95901.41;5034845;28;20473;-81
2020/12/20 03:26:29;;;;;;;29.27;18.40;;;;;;;5.14;94.56;95904.69;5034853;28;20821;-81
2020/12/20 03:28:55;;;;;;;32.33;18.00;;;;;;;5.19;94.94;95902.72;5034807;28;20442;-81
2020/12/20 03:31:24;;;;;;;31.23;16.67;;;;;;;5.20;93.37;95901.81;5034593;28;20927;-81
2020/12/20 03:33:51;;;;;;;27.50;16.83;;;;;;;5.22;93.49;95900.00;5034751;28;20526;-81
2020/12/20 03:36:18;;;;;;;32.57;18.50;;;;;;;5.25;93.96;95901.59;5016130;28;20478;-81
2020/12/20 03:38:44;;;;;;;35.30;17.40;;;;;;;5.27;93.25;95902.38;5000181;28;20504;-81
2020/12/20 03:41:11;;;;;;;28.17;17.63;;;;;;;5.31;93.60;95906.50;5034636;28;20448;-81
2020/12/20 03:43:37;;;;;;;32.43;19.87;;;;;;;5.35;92.74;95908.03;5034859;28;20441;-81
2020/12/20 03:46:04;;;;;;;32.10;17.73;;;;;;;5.38;93.29;95904.44;5034448;28;20446;-81
2020/12/20 03:48:31;;;;;;;31.87;16.50;;;;;;;5.43;92.93;95908.50;4999569;28;20458;-81
2020/12/20 03:50:58;;;;;;;29.83;16.70;;;;;;;5.45;92.00;95901.47;5034458;28;20462;-81
2020/12/20 03:53:24;;;;;;;32.57;16.70;;;;;;;5.47;92.17;95909.19;5034316;28;20445;-81
2020/12/20 03:55:51;;;;;;;25.90;15.70;;;;;;;5.46;91.58;95905.75;5034477;28;20477;-81
2020/12/20 03:58:17;;;;;;;29.53;17.67;;;;;;;5.47;91.71;95907.44;5016137;28;21033;-81
2020/12/20 04:00:44;;;;;;;30.17;16.93;;;;;;;5.48;92.05;95909.13;5033952;28;20549;-81
2020/12/20 04:03:10;;;;;;;32.53;16.17;;;;;;;5.47;91.60;95906.59;5034149;28;20448;-81
2020/12/20 04:05:37;;;;;;;25.83;16.30;;;;;;;5.48;92.35;95905.66;4999294;28;20438;-80
2020/12/20 04:08:04;;;;;;;33.30;16.20;;;;;;;5.46;91.98;95915.31;5033949;28;20453;-81
2020/12/20 04:10:30;;;;;;;26.70;14.83;;;;;;;5.42;90.91;95911.19;5033963;28;20530;-81
2020/12/20 04:12:57;;;;;;;30.53;17.00;;;;;;;5.39;92.01;95906.97;5034305;28;20450;-81
2020/12/20 04:15:23;;;;;;;22.27;14.30;;;;;;;5.36;91.51;95908.88;5034092;28;20430;-81
2020/12/20 04:17:49;;;;;;;28.00;16.83;;;;;;;5.39;91.29;95919.97;5034054;28;20549;-81
2020/12/20 04:20:16;;;;;;;24.63;16.83;;;;;;;5.40;91.73;95915.63;5034040;28;20811;-81
2020/12/20 04:22:43;;;;;;;29.93;16.23;;;;;;;5.41;91.34;95907.75;5033714;28;20826;-81
2020/12/20 04:25:10;;;;;;;31.17;18.13;;;;;;;5.42;91.35;95912.03;5033655;28;20504;-81
2020/12/20 04:27:36;;;;;;;28.27;15.17;;;;;;;5.44;91.59;95918.00;5034028;28;20525;-81
2020/12/20 04:30:04;;;;;;;29.43;16.43;;;;;;;5.47;91.62;95914.41;5033640;28;20438;-81
2020/12/20 04:32:30;;;;;;;34.13;17.87;;;;;;;5.51;90.90;95924.63;5033642;28;20499;-81
2020/12/20 04:34:57;;;;;;;22.80;15.27;;;;;;;5.52;90.26;95923.69;5033515;28;20453;-81
2020/12/20 04:37:23;;;;;;;23.13;13.70;;;;;;;5.52;90.46;95925.47;5033619;28;20482;-81
2020/12/20 04:39:51;;;;;;;23.80;14.63;;;;;;;5.49;90.24;95922.97;5033556;28;20450;-81
2020/12/20 04:42:17;;;;;;;25.57;15.10;;;;;;;5.50;90.58;95925.53;5033268;28;20451;-82
2020/12/20 04:44:44;;;;;;;24.40;15.20;;;;;;;5.47;90.24;95919.59;5033417;28;20458;-82
2020/12/20 04:47:11;;;;;;;25.40;15.90;;;;;;;5.42;90.36;95914.63;5033631;28;20439;-82
2020/12/20 04:49:44;;;;;;;28.10;17.30;;;;;;;5.45;89.94;95916.22;5033206;28;20495;-81
2020/12/20 04:52:11;;;;;;;24.87;14.03;;;;;;;5.46;90.62;95921.38;5033345;28;20871;-81
2020/12/20 04:54:39;;;;;;;23.57;15.07;;;;;;;5.44;89.99;95917.16;5033646;28;20440;-81
2020/12/20 04:57:07;;;;;;;29.30;16.30;;;;;;;5.41;90.40;95914.69;5033102;28;20490;-80
2020/12/20 04:59:36;;;;;;;29.30;14.77;;;;;;;5.40;90.33;95913.88;5014666;28;20441;-81
2020/12/20 05:02:03;;;;;;;23.63;15.13;;;;;;;5.41;91.20;95920.75;4999002;28;20477;-81
2020/12/20 05:04:29;;;;;;;32.80;18.63;;;;;;;5.36;91.10;95911.47;4998170;28;20941;-81
2020/12/20 05:06:57;;;;;;;27.03;13.30;;;;;;;5.37;91.09;95921.81;5032887;28;20949;-81
2020/12/20 05:09:23;;;;;;;26.47;15.90;;;;;;;5.36;90.78;95922.72;5033061;28;20446;-81
2020/12/20 05:11:49;;;;;;;30.77;16.30;;;;;;;5.36;91.02;95919.28;5032973;28;20439;-81
2020/12/20 05:14:29;;;;;;;35.70;18.47;;;;;;;5.35;91.45;95913.25;5033014;28;20448;-81
2020/12/20 05:16:55;;;;;;;40.33;19.90;;;;;;;5.31;91.48;95916.91;5032869;28;20485;-80
2020/12/20 05:19:31;;;;;;;36.00;19.23;;;;;;;5.33;91.70;95922.03;5033125;28;20456;-81
2020/12/20 05:22:15;;;;;;;35.27;18.37;;;;;;;5.33;91.35;95920.28;5032847;28;20444;-81
2020/12/20 05:24:42;;;;;;;29.97;17.90;;;;;;;5.33;91.46;95928.09;5032901;28;20499;-82
2020/12/20 05:27:20;;;;;;;28.27;17.17;;;;;;;5.32;91.52;95929.00;5032366;28;20864;-81
2020/12/20 05:29:52;;;;;;;27.23;14.97;;;;;;;5.32;91.67;95933.38;5032554;28;20461;-81
2020/12/20 05:32:28;;;;;;;30.53;17.80;;;;;;;5.34;91.04;95927.19;5032855;28;20426;-81
2020/12/20 05:34:59;;;;;;;27.17;14.90;;;;;;;5.32;91.48;95939.41;5032859;28;20942;-81
2020/12/20 05:37:29;;;;;;;33.87;17.27;;;;;;;5.32;91.52;95933.38;5032499;28;21040;-81
2020/12/20 05:39:56;;;;;;;29.40;16.27;;;;;;;5.28;91.48;95938.72;5032735;28;20452;-82
2020/12/20 05:42:24;;;;;;;28.00;15.70;;;;;;;5.25;92.41;95943.22;5032525;28;20460;-82
2020/12/20 05:45:03;;;;;;;20.53;14.10;;;;;;;5.16;92.42;95933.22;5032544;28;20819;-81
2020/12/20 05:47:29;;;;;;;33.30;14.67;;;;;;;5.07;92.05;95934.50;5032506;28;20438;-81
2020/12/20 05:49:56;;;;;;;24.43;14.43;;;;;;;5.04;93.21;95933.81;5032539;28;20442;-85
2020/12/20 05:52:22;;;;;;;27.03;16.70;;;;;;;5.04;93.75;95934.66;5032771;28;20454;-81
2020/12/20 05:54:48;;;;;;;23.83;14.47;;;;;;;4.93;93.76;95942.97;4997688;28;20443;-85
2020/12/20 05:57:17;;;;;;;27.83;15.03;;;;;;;4.95;93.64;95941.13;5032384;28;20488;-81
2020/12/20 05:59:45;;;;;;;34.57;16.13;;;;;;;4.96;93.82;95952.38;5032833;28;20452;-82
2020/12/20 06:02:13;;;;;;;31.37;14.93;;;;;;;4.95;94.09;95946.34;5013886;28;20943;-84
2020/12/20 06:04:40;;;;;;;24.83;14.83;;;;;;;4.97;93.51;95957.50;5032623;28;21060;-84
2020/12/20 06:07:09;;;;;;;31.33;14.77;;;;;;;5.01;94.00;95967.78;5032764;28;20442;-85
2020/12/20 06:09:49;;;;;;;31.60;14.43;;;;;;;5.02;93.99;95959.06;5033016;28;20805;-84
2020/12/20 06:12:18;;;;;;;25.53;15.80;;;;;;;5.07;93.50;95964.88;5033026;28;20446;-83
2020/12/20 06:14:46;;;;;;;29.10;14.60;;;;;;;5.09;93.44;95969.09;5032910;28;20454;-84
2020/12/20 06:17:15;;;;;;;28.20;15.40;;;;;;;5.10;93.54;95970.78;5032616;28;20982;-83
2020/12/20 06:19:57;;;;;;;30.13;15.60;;;;;;;5.14;93.05;95974.09;5032612;28;20454;-84
2020/12/20 06:22:26;;;;;;;27.73;16.43;;;;;;;5.17;93.04;95963.53;5032897;28;20450;-84
2020/12/20 06:24:54;;;;;;;26.90;15.80;;;;;;;5.16;92.70;95965.28;5033441;28;20449;-82
2020/12/20 06:27:23;;;;;;;29.50;16.00;;;;;;;5.20;92.57;95966.00;5036380;28;20446;-85
2020/12/20 06:29:52;;;;;;;31.30;18.97;;;;;;;5.20;93.50;95966.00;5036280;28;20445;-83
2020/12/20 06:32:35;;;;;;;53.97;28.83;;;;;;;9.56;100.00;95958.47;5036341;28;20457;-84
2020/12/20 06:35:11;;;;;;;30.37;18.20;;;;;;;9.88;100.00;95963.44;5036387;28;20442;-84
2020/12/20 06:37:40;;;;;;;29.70;19.57;;;;;;;8.91;100.00;95962.56;5036105;28;20963;-83
2020/12/20 06:40:07;;;;;;;44.30;20.80;;;;;;;8.18;100.00;95962.53;5036212;28;20442;-84
2020/12/20 06:42:36;;;;;;;35.40;20.97;;;;;;;7.68;100.00;95970.66;5036186;28;20446;-83
2020/12/20 06:45:14;;;;;;;30.30;18.03;;;;;;;7.37;93.21;95976.72;5036259;28;20442;-83
2020/12/20 06:47:43;;;;;;;24.50;16.07;;;;;;;7.22;88.41;95982.75;5036159;28;20445;-82
2020/12/20 06:50:09;;;;;;;30.97;17.20;;;;;;;7.04;86.75;95984.63;5036039;28;20659;-82
2020/12/20 06:52:47;;;;;;;28.87;20.27;;;;;;;6.87;86.45;95989.88;5036087;28;20536;-83
2020/12/20 06:55:14;;;;;;;35.08;20.05;;;;;;;6.73;86.72;95986.22;5035498;28;20437;-84
2020/12/20 06:58:08;;;;;;;31.37;18.47;;;;;;;6.64;87.39;95985.84;5035509;28;20227;-83
2020/12/20 07:00:43;;;;;;;35.33;16.80;;;;;;;6.55;87.99;95981.97;4974702;28;20520;-83
2020/12/20 07:03:11;;;;;;;24.93;15.57;;;;;;;6.45;87.93;95988.56;4926694;28;20440;-83
2020/12/20 07:05:43;;;;;;;26.07;16.30;;;;;;;6.37;87.95;95985.53;4974738;28;20447;-82
2020/12/20 07:08:20;;;;;;;26.60;15.90;;;;;;;6.32;88.16;95990.09;4974432;28;20810;-83
2020/12/20 07:10:49;;;;;;;30.30;17.47;;;;;;;6.26;88.06;95990.41;4974395;28;20455;-82
2020/12/20 07:13:17;;;;;;;29.50;19.50;;;;;;;6.21;88.85;95988.88;4926742;28;20478;-83
2020/12/20 07:15:48;;;;;;;39.07;19.67;;;;;;;6.20;88.78;95992.41;4975772;28;20449;-83
2020/12/20 07:18:44;;;;;;;41.70;21.03;;;;;;;6.18;88.39;96002.06;4974647;28;21036;-83
2020/12/20 07:21:13;;;;;;;35.00;20.13;;;;;;;6.14;89.12;95995.34;4974699;28;20463;-84
2020/12/20 07:23:42;;;;;;;35.65;21.80;;;;;;;6.16;88.66;95996.09;4973794;28;20914;-83
2020/12/20 07:26:10;;;;;;;42.83;24.40;;;;;;;6.20;88.58;95999.38;4974242;28;20287;-80
2020/12/20 07:28:37;;;;;;;31.17;17.80;;;;;;;6.10;88.28;96004.22;4975110;28;20459;-87
2020/12/20 07:31:04;;;;;;;53.87;27.67;;;;;;;6.08;88.62;96000.84;4943498;28;20496;-90
2020/12/20 07:33:30;;;;;;;76.53;34.10;;;;;;;6.07;88.12;96000.91;4975114;28;20599;-85
2020/12/20 07:36:02;;;;;;;49.43;24.97;;;;;;;6.07;88.44;95996.56;4973707;28;20953;-82
2020/12/20 07:38:28;;;;;;;29.73;16.97;;;;;;;5.96;87.46;95988.41;5031896;28;20533;-84
2020/12/20 07:40:54;;;;;;;36.70;17.90;;;;;;;5.94;87.85;95994.63;5035100;28;20454;-87
2020/12/20 07:43:21;;;;;;;33.57;17.47;;;;;;;5.92;88.55;95997.31;5035847;28;20489;-87
2020/12/20 07:45:58;;;;;;;26.27;16.10;;;;;;;5.94;88.19;95995.47;5036007;28;20851;-85
2020/12/20 07:48:25;;;;;;;24.67;16.57;;;;;;;5.96;88.33;95990.19;5035045;28;20442;-85
2020/12/20 07:50:52;;;;;;;27.73;14.73;;;;;;;5.99;88.65;95997.84;5035265;28;20958;-79
2020/12/20 07:53:19;;;;;;;29.33;16.83;;;;;;;6.01;88.49;96004.66;5035665;28;20569;-85
2020/12/20 07:55:49;;;;;;;28.20;16.20;;;;;;;6.00;88.17;95996.91;5035964;28;20454;-91
2020/12/20 07:58:18;;;;;;;28.37;16.50;;;;;;;6.01;88.02;95998.59;5035207;28;20450;-84
2020/12/20 08:00:45;;;;;;;29.77;16.77;;;;;;;6.03;87.70;96000.22;5034940;28;20446;-86
2020/12/20 08:03:12;;;;;;;24.73;16.20;;;;;;;5.97;88.13;95989.25;5034587;28;20451;-82
2020/12/20 08:05:38;;;;;;;24.60;13.80;;;;;;;5.75;88.33;96002.44;5034570;28;20446;-84
2020/12/20 08:08:05;;;;;;;26.87;16.83;;;;;;;5.79;88.32;95996.19;5034354;28;20451;-83
2020/12/20 08:10:32;;;;;;;31.80;19.43;;;;;;;5.82;89.32;95998.66;5034311;28;20482;-84
2020/12/20 08:12:59;;;;;;;26.10;16.57;;;;;;;5.85;89.07;96001.09;5034249;28;20942;-84
2020/12/20 08:15:25;;;;;;;44.80;23.70;;;;;;;5.82;88.31;95994.28;5034306;28;20517;-85
2020/12/20 08:17:52;;;;;;;38.50;20.00;;;;;;;5.82;88.74;96004.69;5034389;28;20906;-85
2020/12/20 08:20:20;;;;;;;31.50;20.27;;;;;;;7.35;100.00;95973.34;5034312;28;20837;-84
2020/12/20 08:22:47;;;;;;;35.47;23.63;;;;;;;11.16;100.00;95983.66;5035308;28;20319;-82
2020/12/20 08:25:15;;;;;;;27.90;18.60;;;;;;;11.91;95.07;95989.72;5034898;28;20478;-82
2020/12/20 08:27:44;;;;;;;31.20;19.10;;;;;;;10.91;78.34;95999.44;5033971;28;20816;-84
2020/12/20 08:30:11;;;;;;;20.40;14.47;;;;;;;10.11;74.16;95996.00;5034849;28;20547;-83
2020/12/20 08:32:39;;;;;;;34.57;23.87;;;;;;;9.59;73.04;95999.38;5034020;28;20461;-83
2020/12/20 08:35:10;;;;;;;22.67;13.53;;;;;;;9.10;73.42;96002.41;5033726;28;20894;-85
2020/12/20 08:37:37;;;;;;;21.67;12.27;;;;;;;8.38;74.69;95998.00;5033885;28;20578;-81
2020/12/20 08:40:12;;;;;;;25.47;14.47;;;;;;;7.51;78.42;95996.84;5033267;28;20465;-84
2020/12/20 08:42:38;;;;;;;24.90;12.47;;;;;;;6.89;80.84;95996.69;5033128;28;20814;-85
2020/12/20 08:45:13;;;;;;;25.57;14.50;;;;;;;6.76;82.29;95993.91;5034538;28;20460;-84
2020/12/20 08:47:40;;;;;;;29.83;16.03;;;;;;;6.43;84.17;95993.88;5033353;28;20508;-84
2020/12/20 08:50:07;;;;;;;29.83;18.47;;;;;;;6.07;85.89;95996.56;5035534;28;20503;-85
2020/12/20 08:52:34;;;;;;;37.57;20.20;;;;;;;5.62;88.72;95993.53;5015521;28;20444;-84
2020/12/20 08:55:01;;;;;;;33.10;17.27;;;;;;;5.53;89.69;95992.22;5034178;28;20453;-85
2020/12/20 08:57:29;;;;;;;24.80;15.20;;;;;;;5.44;90.22;95990.03;5033908;28;20527;-84
2020/12/20 09:00:07;;;;;;;26.37;15.00;;;;;;;5.21;91.19;95989.38;4999761;28;20538;-84
2020/12/20 09:02:35;;;;;;;19.73;12.77;;;;;;;4.90;93.43;95989.88;5034716;28;20445;-84
2020/12/20 09:05:03;;;;;;;24.60;15.07;;;;;;;4.42;96.19;95982.53;5034253;28;20806;-84
2020/12/20 09:07:35;;;;;;;27.80;15.40;;;;;;;4.69;95.56;95987.44;5033239;28;20439;-85
2020/12/20 09:10:07;;;;;;;25.83;16.37;;;;;;;4.81;95.44;95989.47;5035984;28;20445;-84
2020/12/20 09:12:34;;;;;;;20.90;13.40;;;;;;;4.91;95.19;95983.78;5035616;28;20514;-84
2020/12/20 09:15:05;;;;;;;23.87;12.77;;;;;;;4.82;94.91;95981.59;5035004;28;20538;-90
2020/12/20 09:17:34;;;;;;;31.75;20.63;;;;;;;4.95;95.17;95977.56;5033931;28;20460;-84
2020/12/20 09:20:01;;;;;;;21.40;14.67;;;;;;;5.07;94.17;95977.91;5034384;28;20211;-85
2020/12/20 09:22:58;;;;;;;18.60;13.00;;;;;;;5.12;94.28;95984.56;5034407;28;20533;-84
2020/12/20 09:25:36;;;;;;;30.53;18.73;;;;;;;5.19;94.40;95974.72;4981024;28;20859;-82
2020/12/20 09:28:07;;;;;;;84.47;47.37;;;;;;;5.19;93.29;95972.97;4992585;28;20488;-83
2020/12/20 09:30:37;;;;;;;41.17;25.30;;;;;;;5.07;93.47;95975.28;4992319;28;20444;-83
2020/12/20 09:33:32;;;;;;;34.77;21.90;;;;;;;5.14;94.33;95972.31;4991976;28;20467;-84
2020/12/20 09:36:01;;;;;;;23.03;14.53;;;;;;;5.18;93.31;95978.22;4934225;29;20446;-82
2020/12/20 09:38:31;;;;;;;24.20;15.50;;;;;;;5.13;93.73;95977.59;4927018;29;20825;-81
2020/12/20 09:41:03;;;;;;;32.40;20.73;;;;;;;9.96;100.00;95965.53;4880969;29;20464;-84
2020/12/20 09:43:30;;;;;;;14.50;10.60;;;;;;;9.26;100.00;95966.50;4897644;29;20449;-83
2020/12/20 09:45:57;;;;;;;19.50;11.40;;;;;;;8.43;100.00;95976.81;4897202;29;20465;-83
2020/12/20 09:48:24;;;;;;;23.90;13.20;;;;;;;7.29;90.24;95986.75;4896566;29;20468;-83
2020/12/20 09:50:52;;;;;;;19.53;13.07;;;;;;;7.03;87.96;95977.72;4896215;29;20952;-83
2020/12/20 09:53:18;;;;;;;20.37;12.67;;;;;;;6.67;86.74;95977.91;4897253;29;20500;-83
2020/12/20 09:55:45;;;;;;;20.10;13.87;;;;;;;6.55;86.53;95970.69;4881287;29;20481;-82
2020/12/20 09:58:12;;;;;;;26.33;17.10;;;;;;;6.42;87.55;95973.94;4896024;29;20488;-83
2020/12/20 10:00:39;;;;;;;24.33;16.00;;;;;;;6.32;87.48;95975.31;4975213;28;20481;-82
2020/12/20 10:03:06;;;;;;;31.53;16.27;;;;;;;5.77;89.43;95970.19;4971465;28;20452;-84
2020/12/20 10:05:33;;;;;;;26.80;15.30;;;;;;;5.66;90.41;95975.09;4971344;28;20457;-82
2020/12/20 10:08:01;;;;;;;26.50;16.57;;;;;;;5.27;92.77;95963.06;4985370;28;20479;-81
2020/12/20 10:10:28;;;;;;;32.53;19.87;;;;;;;4.87;95.84;95964.03;4989808;28;20470;-82
2020/12/20 10:12:55;;;;;;;42.63;26.23;;;;;;;4.88;95.78;95970.06;5032618;28;20776;-82
2020/12/20 10:15:23;;;;;;;34.30;18.57;;;;;;;4.93;96.84;95962.94;5032929;28;20813;-82
2020/12/20 10:17:50;;;;;;;38.90;21.87;;;;;;;5.03;96.40;95958.16;5032646;28;20986;-84
2020/12/20 10:20:16;;;;;;;31.00;20.30;;;;;;;5.19;96.88;95959.09;5032636;28;20438;-83
2020/12/20 10:22:43;;;;;;;30.20;19.50;;;;;;;5.32;95.89;95949.81;5033402;28;20474;-84
2020/12/20 10:25:10;;;;;;;37.10;20.77;;;;;;;5.42;94.75;95948.47;5032598;28;20442;-84
2020/12/20 10:27:37;;;;;;;47.37;19.30;;;;;;;5.50;93.87;95950.72;5032398;28;20873;-83
2020/12/20 10:30:04;;;;;;;30.60;16.53;;;;;;;5.46;93.68;95950.00;5032394;28;20458;-84
2020/12/20 10:32:30;;;;;;;29.20;16.50;;;;;;;5.53;93.42;95943.59;5032438;28;20458;-84
2020/12/20 10:34:56;;;;;;;34.77;18.50;;;;;;;5.62;93.55;95946.69;5013305;28;20949;-83
2020/12/20 10:37:23;;;;;;;25.93;16.33;;;;;;;5.59;92.93;95943.31;5032603;28;20597;-84
2020/12/20 10:39:49;;;;;;;19.03;14.37;;;;;;;5.61;92.70;95945.84;5040470;28;20503;-79
2020/12/20 10:42:16;;;;;;;26.60;19.40;;;;;;;5.45;93.63;95942.25;5051816;28;20449;-80
2020/12/20 10:44:43;;;;;;;32.00;19.17;;;;;;;5.01;94.78;95937.41;5051736;28;20491;-80
2020/12/20 10:47:10;;;;;;;31.23;19.43;;;;;;;4.98;96.31;95934.94;5051927;28;20449;-80
2020/12/20 10:49:37;;;;;;;28.90;19.80;;;;;;;5.02;95.72;95933.03;5051417;28;20441;-79
2020/12/20 10:52:03;;;;;;;33.27;22.00;;;;;;;4.87;97.06;95943.22;5051826;28;20448;-78
2020/12/20 10:54:32;;;;;;;43.33;24.73;;;;;;;4.89;96.81;95935.34;5052339;28;20494;-90
2020/12/20 10:56:59;;;;;;;38.27;22.77;;;;;;;4.91;96.94;95936.97;5052327;28;21064;-82
2020/12/20 10:59:27;;;;;;;46.30;24.87;;;;;;;4.97;96.77;95923.72;5051910;28;20453;-82
2020/12/20 11:01:54;;;;;;;37.70;20.77;;;;;;;4.98;97.49;95924.53;5046211;28;20453;-80
2020/12/20 11:04:20;;;;;;;31.80;20.27;;;;;;;4.95;97.45;95924.69;4996472;28;20454;-82
2020/12/20 11:06:47;;;;;;;39.93;22.60;;;;;;;5.01;96.76;95918.34;5031818;28;20960;-81
2020/12/20 11:09:13;;;;;;;26.73;17.27;;;;;;;4.97;97.33;95918.50;5031651;28;20809;-81
2020/12/20 11:11:41;;;;;;;22.73;14.00;;;;;;;4.81;97.02;95914.91;5033957;28;20437;-83
2020/12/20 11:14:07;;;;;;;29.10;18.80;;;;;;;4.93;96.57;95922.16;5035624;28;20496;-82
2020/12/20 11:16:35;;;;;;;38.23;24.23;;;;;;;4.80;97.63;95926.22;5034331;28;20480;-84
2020/12/20 11:19:01;;;;;;;30.33;20.40;;;;;;;4.78;97.87;95922.84;5035737;28;20796;-84
2020/12/20 11:21:27;;;;;;;29.40;17.33;;;;;;;4.75;97.68;95923.00;5035101;28;20450;-79
2020/12/20 11:23:54;;;;;;;26.77;15.97;;;;;;;4.81;97.42;95925.31;5034852;28;20519;-79
2020/12/20 11:26:22;;;;;;;24.20;16.77;;;;;;;4.67;98.60;95919.91;5034876;28;20461;-79
2020/12/20 11:28:49;;;;;;;28.87;20.53;;;;;;;4.66;98.08;95913.03;5035066;28;20931;-79